sensor_id;sensor_type;location;lat;lon;timestamp;temperature;humidity
27573;DHT22;15009;53.082;8.768;2022-09-24T00:02:43;13.80;99.90
27573;DHT22;15009;53.082;8.768;2022-09-24T00:05:45;13.90;99.90
27573;DHT22;15009;53.082;8.768;2022-09-24T00:08:48;13.90;99.90
27573;DHT22;15009;53.082;8.768;2022-09-24T00:11:49;13.90;99.90
27573;DHT22;15009;53.082;8.768;2022-09-24T00:14:52;13.90;99.90
27573;DHT22;15009;53.082;8.768;2022-09-24T00:17:53;13.90;99.90
27573;DHT22;15009;53.082;8.768;2022-09-24T00:20:54;13.90;99.90
27573;DHT22;15009;53.082;8.768;2022-09-24T00:23:56;13.90;99.90
27573;DHT22;15009;53.082;8.768;2022-09-24T00:26:57;13.90;99.90
27573;DHT22;15009;53.082;8.768;2022-09-24T00:29:58;13.90;99.90
27573;DHT22;15009;53.082;8.768;2022-09-24T00:32:59;13.80;99.90
27573;DHT22;15009;53.082;8.768;2022-09-24T00:36:04;13.70;99.90
27573;DHT22;15009;53.082;8.768;2022-09-24T00:39:05;13.80;99.90
27573;DHT22;15009;53.082;8.768;2022-09-24T00:42:06;13.80;99.90
27573;DHT22;15009;53.082;8.768;2022-09-24T00:45:08;13.70;99.90
27573;DHT22;15009;53.082;8.768;2022-09-24T00:48:09;13.80;99.90
27573;DHT22;15009;53.082;8.768;2022-09-24T00:51:12;13.70;99.90
27573;DHT22;15009;53.082;8.768;2022-09-24T00:54:22;13.70;99.90
27573;DHT22;15009;53.082;8.768;2022-09-24T00:57:25;13.70;99.90
27573;DHT22;15009;53.082;8.768;2022-09-24T01:00:26;13.60;99.90
27573;DHT22;15009;53.082;8.768;2022-09-24T01:03:27;13.60;99.90
27573;DHT22;15009;53.082;8.768;2022-09-24T01:06:29;13.60;99.90
27573;DHT22;15009;53.082;8.768;2022-09-24T01:09:29;13.60;99.90
27573;DHT22;15009;53.082;8.768;2022-09-24T01:12:53;13.60;99.90
27573;DHT22;15009;53.082;8.768;2022-09-24T01:16:08;13.50;99.90
27573;DHT22;15009;53.082;8.768;2022-09-24T01:26:31;13.50;99.90
27573;DHT22;15009;53.082;8.768;2022-09-24T01:29:57;13.40;99.90
27573;DHT22;15009;53.082;8.768;2022-09-24T01:33:03;13.40;99.90
27573;DHT22;15009;53.082;8.768;2022-09-24T01:36:08;13.40;99.90
27573;DHT22;15009;53.082;8.768;2022-09-24T01:39:09;13.50;99.90
27573;DHT22;15009;53.082;8.768;2022-09-24T01:42:11;13.40;99.90
27573;DHT22;15009;53.082;8.768;2022-09-24T01:45:13;13.30;99.90
27573;DHT22;15009;53.082;8.768;2022-09-24T01:48:14;13.40;99.90
27573;DHT22;15009;53.082;8.768;2022-09-24T01:51:40;13.40;99.90
27573;DHT22;15009;53.082;8.768;2022-09-24T01:54:45;13.30;99.90
27573;DHT22;15009;53.082;8.768;2022-09-24T01:57:55;13.30;99.90
27573;DHT22;15009;53.082;8.768;2022-09-24T02:01:06;13.30;99.90
27573;DHT22;15009;53.082;8.768;2022-09-24T02:04:12;13.20;99.90
27573;DHT22;15009;53.082;8.768;2022-09-24T02:07:23;13.20;99.90
27573;DHT22;15009;53.082;8.768;2022-09-24T02:10:30;13.20;99.90
27573;DHT22;15009;53.082;8.768;2022-09-24T02:13:56;13.20;99.90
27573;DHT22;15009;53.082;8.768;2022-09-24T02:17:01;13.10;99.90
27573;DHT22;15009;53.082;8.768;2022-09-24T02:20:08;13.10;99.90
27573;DHT22;15009;53.082;8.768;2022-09-24T02:23:10;13.10;99.90
27573;DHT22;15009;53.082;8.768;2022-09-24T02:26:12;13.10;99.90
27573;DHT22;15009;53.082;8.768;2022-09-24T02:29:13;13.00;99.90
27573;DHT22;15009;53.082;8.768;2022-09-24T02:32:17;13.00;99.90
27573;DHT22;15009;53.082;8.768;2022-09-24T02:35:18;13.00;99.90
27573;DHT22;15009;53.082;8.768;2022-09-24T02:38:19;13.00;99.90
27573;DHT22;15009;53.082;8.768;2022-09-24T02:41:21;13.00;99.90
27573;DHT22;15009;53.082;8.768;2022-09-24T02:44:23;13.00;99.90
27573;DHT22;15009;53.082;8.768;2022-09-24T02:47:25;13.00;99.90
27573;DHT22;15009;53.082;8.768;2022-09-24T02:50:25;13.00;99.90
27573;DHT22;15009;53.082;8.768;2022-09-24T02:53:26;13.00;99.90
27573;DHT22;15009;53.082;8.768;2022-09-24T02:56:28;12.90;99.90
27573;DHT22;15009;53.082;8.768;2022-09-24T02:59:28;12.90;99.90
27573;DHT22;15009;53.082;8.768;2022-09-24T03:02:29;12.90;99.90
27573;DHT22;15009;53.082;8.768;2022-09-24T03:05:29;12.90;99.90
27573;DHT22;15009;53.082;8.768;2022-09-24T03:08:30;12.90;99.90
27573;DHT22;15009;53.082;8.768;2022-09-24T03:11:31;13.00;99.90
27573;DHT22;15009;53.082;8.768;2022-09-24T03:14:33;12.90;99.90
27573;DHT22;15009;53.082;8.768;2022-09-24T03:17:33;12.90;99.90
27573;DHT22;15009;53.082;8.768;2022-09-24T03:20:34;12.90;99.90
27573;DHT22;15009;53.082;8.768;2022-09-24T03:23:35;12.80;99.90
27573;DHT22;15009;53.082;8.768;2022-09-24T03:26:35;12.90;99.90
27573;DHT22;15009;53.082;8.768;2022-09-24T03:29:36;12.80;99.90
27573;DHT22;15009;53.082;8.768;2022-09-24T03:32:55;12.80;99.90
27573;DHT22;15009;53.082;8.768;2022-09-24T03:36:01;12.80;99.90
27573;DHT22;15009;53.082;8.768;2022-09-24T03:39:02;12.80;99.90
27573;DHT22;15009;53.082;8.768;2022-09-24T03:42:03;12.80;99.90
27573;DHT22;15009;53.082;8.768;2022-09-24T03:45:04;12.80;99.90
27573;DHT22;15009;53.082;8.768;2022-09-24T03:48:05;12.80;99.90
27573;DHT22;15009;53.082;8.768;2022-09-24T03:51:14;12.70;99.90
27573;DHT22;15009;53.082;8.768;2022-09-24T03:54:15;12.70;99.90
27573;DHT22;15009;53.082;8.768;2022-09-24T03:57:15;12.60;99.90
27573;DHT22;15009;53.082;8.768;2022-09-24T04:00:16;12.70;99.90
27573;DHT22;15009;53.082;8.768;2022-09-24T04:03:17;12.70;99.90
27573;DHT22;15009;53.082;8.768;2022-09-24T04:06:17;12.70;99.90
27573;DHT22;15009;53.082;8.768;2022-09-24T04:09:18;12.70;99.90
27573;DHT22;15009;53.082;8.768;2022-09-24T04:12:18;12.70;99.90
27573;DHT22;15009;53.082;8.768;2022-09-24T04:15:20;12.70;99.90
27573;DHT22;15009;53.082;8.768;2022-09-24T04:18:21;12.70;99.90
27573;DHT22;15009;53.082;8.768;2022-09-24T04:21:21;12.70;99.90
27573;DHT22;15009;53.082;8.768;2022-09-24T04:24:22;12.70;99.90
27573;DHT22;15009;53.082;8.768;2022-09-24T04:27:23;12.70;99.90
27573;DHT22;15009;53.082;8.768;2022-09-24T04:30:24;12.70;99.90
27573;DHT22;15009;53.082;8.768;2022-09-24T04:33:25;12.70;99.90
27573;DHT22;15009;53.082;8.768;2022-09-24T04:36:26;12.70;99.90
27573;DHT22;15009;53.082;8.768;2022-09-24T04:39:27;12.70;99.90
27573;DHT22;15009;53.082;8.768;2022-09-24T04:42:27;12.70;99.90
27573;DHT22;15009;53.082;8.768;2022-09-24T04:45:28;12.70;99.90
27573;DHT22;15009;53.082;8.768;2022-09-24T04:48:29;12.60;99.90
27573;DHT22;15009;53.082;8.768;2022-09-24T04:51:30;12.60;99.90
27573;DHT22;15009;53.082;8.768;2022-09-24T04:54:34;12.50;99.90
27573;DHT22;15009;53.082;8.768;2022-09-24T04:57:35;12.50;99.90
27573;DHT22;15009;53.082;8.768;2022-09-24T05:00:36;12.50;99.90
27573;DHT22;15009;53.082;8.768;2022-09-24T05:03:36;12.50;99.90
27573;DHT22;15009;53.082;8.768;2022-09-24T05:06:37;12.50;99.90
27573;DHT22;15009;53.082;8.768;2022-09-24T05:09:38;12.50;99.90
27573;DHT22;15009;53.082;8.768;2022-09-24T05:12:39;12.50;99.90
27573;DHT22;15009;53.082;8.768;2022-09-24T05:15:40;12.50;99.90
27573;DHT22;15009;53.082;8.768;2022-09-24T05:18:40;12.60;99.90
27573;DHT22;15009;53.082;8.768;2022-09-24T05:21:41;12.60;99.90
27573;DHT22;15009;53.082;8.768;2022-09-24T05:24:41;12.50;99.90
27573;DHT22;15009;53.082;8.768;2022-09-24T05:27:52;12.50;99.90
27573;DHT22;15009;53.082;8.768;2022-09-24T05:30:57;12.50;99.90
27573;DHT22;15009;53.082;8.768;2022-09-24T05:33:58;12.50;99.90
27573;DHT22;15009;53.082;8.768;2022-09-24T05:36:59;12.60;99.90
27573;DHT22;15009;53.082;8.768;2022-09-24T05:40:01;12.50;99.90
27573;DHT22;15009;53.082;8.768;2022-09-24T05:43:21;12.60;99.90
27573;DHT22;15009;53.082;8.768;2022-09-24T05:46:22;12.60;99.90
27573;DHT22;15009;53.082;8.768;2022-09-24T05:49:23;12.60;99.90
27573;DHT22;15009;53.082;8.768;2022-09-24T05:52:23;12.70;99.90
27573;DHT22;15009;53.082;8.768;2022-09-24T05:55:24;12.70;99.90
27573;DHT22;15009;53.082;8.768;2022-09-24T05:58:24;12.80;99.90
27573;DHT22;15009;53.082;8.768;2022-09-24T06:01:28;12.80;99.90
27573;DHT22;15009;53.082;8.768;2022-09-24T06:04:32;12.80;99.90
27573;DHT22;15009;53.082;8.768;2022-09-24T06:07:32;12.80;99.90
27573;DHT22;15009;53.082;8.768;2022-09-24T06:10:33;12.80;99.90
27573;DHT22;15009;53.082;8.768;2022-09-24T06:13:35;12.90;99.90
27573;DHT22;15009;53.082;8.768;2022-09-24T06:16:36;12.90;99.90
27573;DHT22;15009;53.082;8.768;2022-09-24T06:19:36;13.00;99.90
27573;DHT22;15009;53.082;8.768;2022-09-24T06:22:39;13.10;99.90
27573;DHT22;15009;53.082;8.768;2022-09-24T06:25:39;13.20;99.90
27573;DHT22;15009;53.082;8.768;2022-09-24T06:28:40;13.30;99.90
27573;DHT22;15009;53.082;8.768;2022-09-24T06:31:41;13.40;99.90
27573;DHT22;15009;53.082;8.768;2022-09-24T06:34:42;13.40;99.90
27573;DHT22;15009;53.082;8.768;2022-09-24T06:37:42;13.50;99.90
27573;DHT22;15009;53.082;8.768;2022-09-24T06:40:44;13.50;99.90
27573;DHT22;15009;53.082;8.768;2022-09-24T06:43:46;13.40;99.90
27573;DHT22;15009;53.082;8.768;2022-09-24T06:46:46;13.50;99.90
27573;DHT22;15009;53.082;8.768;2022-09-24T06:49:47;13.50;99.90
27573;DHT22;15009;53.082;8.768;2022-09-24T06:52:49;13.60;99.90
27573;DHT22;15009;53.082;8.768;2022-09-24T06:55:50;13.60;99.90
27573;DHT22;15009;53.082;8.768;2022-09-24T06:58:51;13.60;99.90
27573;DHT22;15009;53.082;8.768;2022-09-24T07:01:51;13.60;99.90
27573;DHT22;15009;53.082;8.768;2022-09-24T07:04:52;13.60;99.90
27573;DHT22;15009;53.082;8.768;2022-09-24T07:07:52;13.60;99.90
27573;DHT22;15009;53.082;8.768;2022-09-24T07:10:53;13.70;99.90
27573;DHT22;15009;53.082;8.768;2022-09-24T07:13:53;13.60;99.90
27573;DHT22;15009;53.082;8.768;2022-09-24T07:16:54;13.70;99.90
27573;DHT22;15009;53.082;8.768;2022-09-24T07:19:54;13.60;99.90
27573;DHT22;15009;53.082;8.768;2022-09-24T07:22:55;13.70;99.90
27573;DHT22;15009;53.082;8.768;2022-09-24T07:25:56;13.70;99.90
27573;DHT22;15009;53.082;8.768;2022-09-24T07:28:57;13.70;99.90
27573;DHT22;15009;53.082;8.768;2022-09-24T07:31:57;13.70;99.90
27573;DHT22;15009;53.082;8.768;2022-09-24T07:34:58;13.70;99.90
27573;DHT22;15009;53.082;8.768;2022-09-24T07:38:05;13.80;99.90
27573;DHT22;15009;53.082;8.768;2022-09-24T07:41:06;13.80;99.90
27573;DHT22;15009;53.082;8.768;2022-09-24T07:44:08;14.00;99.90
27573;DHT22;15009;53.082;8.768;2022-09-24T07:47:09;14.10;99.90
27573;DHT22;15009;53.082;8.768;2022-09-24T07:50:10;14.20;99.90
27573;DHT22;15009;53.082;8.768;2022-09-24T07:53:12;14.30;99.90
27573;DHT22;15009;53.082;8.768;2022-09-24T07:56:14;14.40;99.90
27573;DHT22;15009;53.082;8.768;2022-09-24T07:59:15;14.40;99.90
27573;DHT22;15009;53.082;8.768;2022-09-24T08:02:16;14.40;99.90
27573;DHT22;15009;53.082;8.768;2022-09-24T08:05:17;14.30;99.90
27573;DHT22;15009;53.082;8.768;2022-09-24T08:08:17;14.20;99.90
27573;DHT22;15009;53.082;8.768;2022-09-24T08:11:20;14.30;99.90
27573;DHT22;15009;53.082;8.768;2022-09-24T08:14:20;14.30;99.90
27573;DHT22;15009;53.082;8.768;2022-09-24T08:17:21;14.30;99.90
27573;DHT22;15009;53.082;8.768;2022-09-24T08:20:22;14.30;99.90
27573;DHT22;15009;53.082;8.768;2022-09-24T08:23:23;14.40;99.90
27573;DHT22;15009;53.082;8.768;2022-09-24T08:26:24;14.40;99.90
27573;DHT22;15009;53.082;8.768;2022-09-24T08:29:25;14.50;99.90
27573;DHT22;15009;53.082;8.768;2022-09-24T08:32:26;14.50;99.90
27573;DHT22;15009;53.082;8.768;2022-09-24T08:35:28;14.60;99.90
27573;DHT22;15009;53.082;8.768;2022-09-24T08:38:28;14.60;99.90
27573;DHT22;15009;53.082;8.768;2022-09-24T08:41:53;14.70;99.90
27573;DHT22;15009;53.082;8.768;2022-09-24T08:44:56;15.00;99.90
27573;DHT22;15009;53.082;8.768;2022-09-24T08:48:18;15.10;99.90
27573;DHT22;15009;53.082;8.768;2022-09-24T08:51:21;15.00;99.90
27573;DHT22;15009;53.082;8.768;2022-09-24T08:54:23;15.00;99.90
27573;DHT22;15009;53.082;8.768;2022-09-24T08:57:26;15.10;99.90
27573;DHT22;15009;53.082;8.768;2022-09-24T09:00:30;15.10;99.90
27573;DHT22;15009;53.082;8.768;2022-09-24T09:07:11;15.20;99.90
27573;DHT22;15009;53.082;8.768;2022-09-24T09:10:17;15.20;99.90
27573;DHT22;15009;53.082;8.768;2022-09-24T09:13:27;15.30;99.90
27573;DHT22;15009;53.082;8.768;2022-09-24T09:19:43;15.50;99.90
27573;DHT22;15009;53.082;8.768;2022-09-24T09:22:50;15.50;99.90
27573;DHT22;15009;53.082;8.768;2022-09-24T09:25:54;15.50;99.90
27573;DHT22;15009;53.082;8.768;2022-09-24T09:28:58;15.50;99.90
27573;DHT22;15009;53.082;8.768;2022-09-24T09:35:33;15.40;99.90
27573;DHT22;15009;53.082;8.768;2022-09-24T09:38:41;15.30;99.90
27573;DHT22;15009;53.082;8.768;2022-09-24T09:42:15;15.30;99.90
27573;DHT22;15009;53.082;8.768;2022-09-24T09:48:28;15.10;99.90
27573;DHT22;15009;53.082;8.768;2022-09-24T09:51:35;15.00;99.90
27573;DHT22;15009;53.082;8.768;2022-09-24T09:54:38;15.00;99.90
27573;DHT22;15009;53.082;8.768;2022-09-24T09:57:41;15.00;99.90
27573;DHT22;15009;53.082;8.768;2022-09-24T10:00:42;15.10;99.90
27573;DHT22;15009;53.082;8.768;2022-09-24T10:06:48;15.10;99.90
27573;DHT22;15009;53.082;8.768;2022-09-24T10:10:01;15.20;99.90
27573;DHT22;15009;53.082;8.768;2022-09-24T10:13:10;15.30;99.90
27573;DHT22;15009;53.082;8.768;2022-09-24T10:16:13;15.20;99.90
27573;DHT22;15009;53.082;8.768;2022-09-24T10:19:23;15.10;99.90
27573;DHT22;15009;53.082;8.768;2022-09-24T10:22:26;15.10;99.90
27573;DHT22;15009;53.082;8.768;2022-09-24T10:25:28;15.00;99.90
27573;DHT22;15009;53.082;8.768;2022-09-24T10:28:30;15.20;99.90
27573;DHT22;15009;53.082;8.768;2022-09-24T10:31:50;15.50;99.90
27573;DHT22;15009;53.082;8.768;2022-09-24T10:34:57;15.80;99.90
27573;DHT22;15009;53.082;8.768;2022-09-24T10:37:59;16.10;99.90
27573;DHT22;15009;53.082;8.768;2022-09-24T10:41:00;16.10;99.90
27573;DHT22;15009;53.082;8.768;2022-09-24T10:44:04;16.00;99.90
27573;DHT22;15009;53.082;8.768;2022-09-24T10:47:29;15.90;99.90
27573;DHT22;15009;53.082;8.768;2022-09-24T10:51:05;16.00;99.90
27573;DHT22;15009;53.082;8.768;2022-09-24T10:54:22;16.10;99.90
27573;DHT22;15009;53.082;8.768;2022-09-24T11:10:27;15.90;99.90
27573;DHT22;15009;53.082;8.768;2022-09-24T11:14:00;15.90;99.90
27573;DHT22;15009;53.082;8.768;2022-09-24T11:17:10;15.80;99.90
27573;DHT22;15009;53.082;8.768;2022-09-24T11:20:37;15.80;99.90
27573;DHT22;15009;53.082;8.768;2022-09-24T11:30:13;15.90;99.90
27573;DHT22;15009;53.082;8.768;2022-09-24T11:44:15;15.20;99.90
27573;DHT22;15009;53.082;8.768;2022-09-24T11:50:52;15.10;99.90
27573;DHT22;15009;53.082;8.768;2022-09-24T11:54:02;15.10;99.90
27573;DHT22;15009;53.082;8.768;2022-09-24T11:57:19;15.10;99.90
27573;DHT22;15009;53.082;8.768;2022-09-24T12:00:20;15.20;99.90
27573;DHT22;15009;53.082;8.768;2022-09-24T12:07:01;15.30;99.90
27573;DHT22;15009;53.082;8.768;2022-09-24T12:10:34;15.40;99.90
27573;DHT22;15009;53.082;8.768;2022-09-24T12:13:40;15.40;99.90
27573;DHT22;15009;53.082;8.768;2022-09-24T12:16:42;15.30;99.90
27573;DHT22;15009;53.082;8.768;2022-09-24T12:20:00;15.20;99.90
27573;DHT22;15009;53.082;8.768;2022-09-24T12:23:13;15.30;99.90
27573;DHT22;15009;53.082;8.768;2022-09-24T12:26:16;15.40;99.90
27573;DHT22;15009;53.082;8.768;2022-09-24T12:29:39;15.50;99.90
27573;DHT22;15009;53.082;8.768;2022-09-24T12:36:52;16.10;99.90
27573;DHT22;15009;53.082;8.768;2022-09-24T12:43:20;16.20;99.90
27573;DHT22;15009;53.082;8.768;2022-09-24T12:46:43;16.50;99.90
27573;DHT22;15009;53.082;8.768;2022-09-24T12:49:54;16.90;99.90
27573;DHT22;15009;53.082;8.768;2022-09-24T12:52:56;17.10;99.90
27573;DHT22;15009;53.082;8.768;2022-09-24T12:55:58;17.20;99.90
27573;DHT22;15009;53.082;8.768;2022-09-24T12:58:59;17.20;99.90
27573;DHT22;15009;53.082;8.768;2022-09-24T13:02:16;17.10;99.90
27573;DHT22;15009;53.082;8.768;2022-09-24T13:08:38;17.30;99.90
27573;DHT22;15009;53.082;8.768;2022-09-24T13:11:39;17.20;99.90
27573;DHT22;15009;53.082;8.768;2022-09-24T13:14:42;17.10;99.90
27573;DHT22;15009;53.082;8.768;2022-09-24T13:17:46;17.00;99.90
27573;DHT22;15009;53.082;8.768;2022-09-24T13:21:06;16.80;99.90
27573;DHT22;15009;53.082;8.768;2022-09-24T13:24:11;16.60;99.90
27573;DHT22;15009;53.082;8.768;2022-09-24T13:30:37;16.20;99.90
27573;DHT22;15009;53.082;8.768;2022-09-24T13:33:43;15.90;99.90
27573;DHT22;15009;53.082;8.768;2022-09-24T13:36:59;15.80;99.90
27573;DHT22;15009;53.082;8.768;2022-09-24T13:40:05;15.70;99.90
27573;DHT22;15009;53.082;8.768;2022-09-24T13:43:18;15.60;99.90
27573;DHT22;15009;53.082;8.768;2022-09-24T13:46:25;15.70;99.90
27573;DHT22;15009;53.082;8.768;2022-09-24T13:49:28;15.70;99.90
27573;DHT22;15009;53.082;8.768;2022-09-24T13:52:38;15.70;99.90
27573;DHT22;15009;53.082;8.768;2022-09-24T13:55:48;15.70;99.90
27573;DHT22;15009;53.082;8.768;2022-09-24T13:58:48;15.80;99.90
27573;DHT22;15009;53.082;8.768;2022-09-24T14:01:50;15.80;99.90
27573;DHT22;15009;53.082;8.768;2022-09-24T14:04:59;15.80;99.90
27573;DHT22;15009;53.082;8.768;2022-09-24T14:08:04;16.00;99.90
27573;DHT22;15009;53.082;8.768;2022-09-24T14:11:18;16.10;99.90
27573;DHT22;15009;53.082;8.768;2022-09-24T14:14:21;16.10;99.90
27573;DHT22;15009;53.082;8.768;2022-09-24T14:17:25;16.20;99.90
27573;DHT22;15009;53.082;8.768;2022-09-24T14:20:30;16.30;99.90
27573;DHT22;15009;53.082;8.768;2022-09-24T14:23:38;16.40;99.90
27573;DHT22;15009;53.082;8.768;2022-09-24T14:26:48;16.70;99.90
27573;DHT22;15009;53.082;8.768;2022-09-24T14:30:06;16.80;99.90
27573;DHT22;15009;53.082;8.768;2022-09-24T14:33:14;16.80;99.90
27573;DHT22;15009;53.082;8.768;2022-09-24T14:36:15;16.70;99.90
27573;DHT22;15009;53.082;8.768;2022-09-24T14:39:16;16.50;99.90
27573;DHT22;15009;53.082;8.768;2022-09-24T14:42:24;16.40;99.90
27573;DHT22;15009;53.082;8.768;2022-09-24T14:45:34;16.30;99.90
27573;DHT22;15009;53.082;8.768;2022-09-24T14:48:39;16.20;99.90
27573;DHT22;15009;53.082;8.768;2022-09-24T14:51:53;16.40;99.90
27573;DHT22;15009;53.082;8.768;2022-09-24T14:55:11;16.40;99.90
27573;DHT22;15009;53.082;8.768;2022-09-24T15:01:31;16.50;99.90
27573;DHT22;15009;53.082;8.768;2022-09-24T15:04:32;16.50;99.90
27573;DHT22;15009;53.082;8.768;2022-09-24T15:07:34;16.50;99.90
27573;DHT22;15009;53.082;8.768;2022-09-24T15:10:35;16.40;99.90
27573;DHT22;15009;53.082;8.768;2022-09-24T15:13:36;16.30;99.90
27573;DHT22;15009;53.082;8.768;2022-09-24T15:16:37;16.30;99.90
27573;DHT22;15009;53.082;8.768;2022-09-24T15:19:37;16.20;99.90
27573;DHT22;15009;53.082;8.768;2022-09-24T15:22:42;16.20;99.90
27573;DHT22;15009;53.082;8.768;2022-09-24T15:25:42;16.10;99.90
27573;DHT22;15009;53.082;8.768;2022-09-24T15:28:43;16.10;99.90
27573;DHT22;15009;53.082;8.768;2022-09-24T15:31:44;16.10;99.90
27573;DHT22;15009;53.082;8.768;2022-09-24T15:34:45;15.90;99.90
27573;DHT22;15009;53.082;8.768;2022-09-24T15:37:45;15.90;99.90
27573;DHT22;15009;53.082;8.768;2022-09-24T15:40:47;15.80;99.90
27573;DHT22;15009;53.082;8.768;2022-09-24T15:43:56;15.80;99.90
27573;DHT22;15009;53.082;8.768;2022-09-24T15:46:57;15.90;99.90
27573;DHT22;15009;53.082;8.768;2022-09-24T15:49:58;15.80;99.90
27573;DHT22;15009;53.082;8.768;2022-09-24T15:52:59;15.70;99.90
27573;DHT22;15009;53.082;8.768;2022-09-24T15:56:01;15.60;99.90
27573;DHT22;15009;53.082;8.768;2022-09-24T15:59:12;15.50;99.90
27573;DHT22;15009;53.082;8.768;2022-09-24T16:02:23;15.50;99.90
27573;DHT22;15009;53.082;8.768;2022-09-24T16:05:24;15.40;99.90
27573;DHT22;15009;53.082;8.768;2022-09-24T16:08:25;15.40;99.90
27573;DHT22;15009;53.082;8.768;2022-09-24T16:11:26;15.40;99.90
27573;DHT22;15009;53.082;8.768;2022-09-24T16:14:27;15.40;99.90
27573;DHT22;15009;53.082;8.768;2022-09-24T16:17:28;15.50;99.90
27573;DHT22;15009;53.082;8.768;2022-09-24T16:20:28;15.50;99.90
27573;DHT22;15009;53.082;8.768;2022-09-24T16:23:29;15.40;99.90
27573;DHT22;15009;53.082;8.768;2022-09-24T16:26:30;15.40;99.90
27573;DHT22;15009;53.082;8.768;2022-09-24T16:29:31;15.30;99.90
27573;DHT22;15009;53.082;8.768;2022-09-24T16:32:32;15.30;99.90
27573;DHT22;15009;53.082;8.768;2022-09-24T16:35:32;15.30;99.90
27573;DHT22;15009;53.082;8.768;2022-09-24T16:38:37;15.30;99.90
27573;DHT22;15009;53.082;8.768;2022-09-24T16:41:38;15.20;99.90
27573;DHT22;15009;53.082;8.768;2022-09-24T16:44:38;15.10;99.90
27573;DHT22;15009;53.082;8.768;2022-09-24T16:47:39;15.20;99.90
27573;DHT22;15009;53.082;8.768;2022-09-24T16:50:40;15.10;99.90
27573;DHT22;15009;53.082;8.768;2022-09-24T16:53:40;15.10;99.90
27573;DHT22;15009;53.082;8.768;2022-09-24T16:56:41;15.10;99.90
27573;DHT22;15009;53.082;8.768;2022-09-24T16:59:42;15.00;99.90
27573;DHT22;15009;53.082;8.768;2022-09-24T17:02:42;15.00;99.90
27573;DHT22;15009;53.082;8.768;2022-09-24T17:05:43;14.90;99.90
27573;DHT22;15009;53.082;8.768;2022-09-24T17:08:44;14.90;99.90
27573;DHT22;15009;53.082;8.768;2022-09-24T17:12:03;15.00;99.90
27573;DHT22;15009;53.082;8.768;2022-09-24T17:15:04;15.00;99.90
27573;DHT22;15009;53.082;8.768;2022-09-24T17:18:05;15.00;99.90
27573;DHT22;15009;53.082;8.768;2022-09-24T17:21:10;15.00;99.90
27573;DHT22;15009;53.082;8.768;2022-09-24T17:24:11;15.10;99.90
27573;DHT22;15009;53.082;8.768;2022-09-24T17:27:13;15.00;99.90
27573;DHT22;15009;53.082;8.768;2022-09-24T17:30:14;15.00;99.90
27573;DHT22;15009;53.082;8.768;2022-09-24T17:33:15;15.00;99.90
27573;DHT22;15009;53.082;8.768;2022-09-24T17:36:15;14.90;99.90
27573;DHT22;15009;53.082;8.768;2022-09-24T17:39:16;14.80;99.90
27573;DHT22;15009;53.082;8.768;2022-09-24T17:42:18;14.60;99.90
27573;DHT22;15009;53.082;8.768;2022-09-24T17:45:18;14.60;99.90
27573;DHT22;15009;53.082;8.768;2022-09-24T17:48:20;14.60;99.90
27573;DHT22;15009;53.082;8.768;2022-09-24T17:51:28;14.60;99.90
27573;DHT22;15009;53.082;8.768;2022-09-24T17:54:32;14.60;99.90
27573;DHT22;15009;53.082;8.768;2022-09-24T17:57:32;14.60;99.90
27573;DHT22;15009;53.082;8.768;2022-09-24T18:00:33;14.60;99.90
27573;DHT22;15009;53.082;8.768;2022-09-24T18:03:34;14.60;99.90
27573;DHT22;15009;53.082;8.768;2022-09-24T18:06:36;14.60;99.90
27573;DHT22;15009;53.082;8.768;2022-09-24T18:09:37;14.60;99.90
27573;DHT22;15009;53.082;8.768;2022-09-24T18:12:38;14.60;99.90
27573;DHT22;15009;53.082;8.768;2022-09-24T18:15:38;14.70;99.90
27573;DHT22;15009;53.082;8.768;2022-09-24T18:18:40;14.60;99.90
27573;DHT22;15009;53.082;8.768;2022-09-24T18:21:42;14.60;99.90
27573;DHT22;15009;53.082;8.768;2022-09-24T18:24:43;14.60;99.90
27573;DHT22;15009;53.082;8.768;2022-09-24T18:27:46;14.60;99.90
27573;DHT22;15009;53.082;8.768;2022-09-24T18:30:47;14.60;99.90
27573;DHT22;15009;53.082;8.768;2022-09-24T18:33:49;14.60;99.90
27573;DHT22;15009;53.082;8.768;2022-09-24T18:36:50;14.60;99.90
27573;DHT22;15009;53.082;8.768;2022-09-24T18:39:51;14.50;99.90
27573;DHT22;15009;53.082;8.768;2022-09-24T18:42:51;14.50;99.90
27573;DHT22;15009;53.082;8.768;2022-09-24T18:45:52;14.50;99.90
27573;DHT22;15009;53.082;8.768;2022-09-24T18:48:54;14.50;99.90
27573;DHT22;15009;53.082;8.768;2022-09-24T18:51:58;14.60;99.90
27573;DHT22;15009;53.082;8.768;2022-09-24T18:55:00;14.60;99.90
27573;DHT22;15009;53.082;8.768;2022-09-24T19:01:05;14.50;99.90
27573;DHT22;15009;53.082;8.768;2022-09-24T19:04:10;14.60;99.90
27573;DHT22;15009;53.082;8.768;2022-09-24T19:07:11;14.60;99.90
27573;DHT22;15009;53.082;8.768;2022-09-24T19:10:12;14.60;99.90
27573;DHT22;15009;53.082;8.768;2022-09-24T19:13:14;14.50;99.90
27573;DHT22;15009;53.082;8.768;2022-09-24T19:16:16;14.50;99.90
27573;DHT22;15009;53.082;8.768;2022-09-24T19:19:17;14.50;99.90
27573;DHT22;15009;53.082;8.768;2022-09-24T19:22:17;14.50;99.90
27573;DHT22;15009;53.082;8.768;2022-09-24T19:25:18;14.40;99.90
27573;DHT22;15009;53.082;8.768;2022-09-24T19:28:19;14.40;99.90
27573;DHT22;15009;53.082;8.768;2022-09-24T19:31:28;14.40;99.90
27573;DHT22;15009;53.082;8.768;2022-09-24T19:34:29;14.40;99.90
27573;DHT22;15009;53.082;8.768;2022-09-24T19:37:30;14.40;99.90
27573;DHT22;15009;53.082;8.768;2022-09-24T19:40:31;14.30;99.90
27573;DHT22;15009;53.082;8.768;2022-09-24T19:43:33;14.20;99.90
27573;DHT22;15009;53.082;8.768;2022-09-24T19:46:33;14.10;99.90
27573;DHT22;15009;53.082;8.768;2022-09-24T19:49:34;14.10;99.90
27573;DHT22;15009;53.082;8.768;2022-09-24T19:52:35;14.10;99.90
27573;DHT22;15009;53.082;8.768;2022-09-24T19:55:35;14.10;99.90
27573;DHT22;15009;53.082;8.768;2022-09-24T19:58:36;14.00;99.90
27573;DHT22;15009;53.082;8.768;2022-09-24T20:01:36;13.90;99.90
27573;DHT22;15009;53.082;8.768;2022-09-24T20:04:37;13.90;99.90
27573;DHT22;15009;53.082;8.768;2022-09-24T20:07:37;13.80;99.90
27573;DHT22;15009;53.082;8.768;2022-09-24T20:10:42;13.80;99.90
27573;DHT22;15009;53.082;8.768;2022-09-24T20:13:44;13.70;99.90
27573;DHT22;15009;53.082;8.768;2022-09-24T20:16:48;13.70;99.90
27573;DHT22;15009;53.082;8.768;2022-09-24T20:19:49;13.70;99.90
27573;DHT22;15009;53.082;8.768;2022-09-24T20:22:49;13.60;99.90
27573;DHT22;15009;53.082;8.768;2022-09-24T20:25:51;13.70;99.90
27573;DHT22;15009;53.082;8.768;2022-09-24T20:29:12;13.70;99.90
27573;DHT22;15009;53.082;8.768;2022-09-24T20:32:13;13.80;99.90
27573;DHT22;15009;53.082;8.768;2022-09-24T20:35:18;13.70;99.90
27573;DHT22;15009;53.082;8.768;2022-09-24T20:38:20;13.70;99.90
27573;DHT22;15009;53.082;8.768;2022-09-24T20:41:22;13.60;99.90
27573;DHT22;15009;53.082;8.768;2022-09-24T20:44:23;13.50;99.90